createdAt,value
2022-08-16T00:01:24.551Z,4.30
2022-08-16T00:03:53.885Z,4.43
2022-08-16T00:06:22.449Z,4.33
2022-08-16T00:08:49.755Z,4.30
2022-08-16T00:11:19.237Z,4.10
2022-08-16T00:13:53.843Z,4.17
2022-08-16T00:17:06.680Z,4.40
2022-08-16T00:19:13.764Z,4.40
2022-08-16T00:21:42.522Z,4.60
2022-08-16T00:24:12.331Z,4.43
2022-08-16T00:26:45.013Z,4.30
2022-08-16T00:29:16.048Z,4.30
2022-08-16T00:31:59.293Z,4.17
2022-08-16T00:34:44.220Z,4.10
2022-08-16T00:37:20.461Z,4.47
2022-08-16T00:39:57.537Z,4.67
2022-08-16T00:42:31.826Z,4.23
2022-08-16T00:45:18.760Z,4.20
2022-08-16T00:47:53.436Z,4.30
2022-08-16T00:50:36.616Z,4.27
2022-08-16T00:53:08.461Z,4.37
2022-08-16T00:55:38.418Z,4.27
2022-08-16T00:58:13.174Z,3.83
2022-08-16T01:00:45.601Z,3.80
2022-08-16T01:03:30.034Z,4.20
2022-08-16T01:05:59.644Z,4.17
2022-08-16T01:08:50.418Z,4.00
2022-08-16T01:11:18.347Z,4.23
2022-08-16T01:13:49.311Z,4.10
2022-08-16T01:16:25.819Z,3.80
2022-08-16T01:19:11.235Z,4.03
2022-08-16T01:21:55.630Z,3.77
2022-08-16T01:24:53.820Z,3.60
2022-08-16T01:27:57.692Z,3.90
2022-08-16T01:30:28.987Z,3.90
2022-08-16T01:33:02.876Z,3.70
2022-08-16T01:35:59.572Z,3.60
2022-08-16T01:38:35.482Z,3.47
2022-08-16T01:41:19.244Z,3.50
2022-08-16T01:43:53.980Z,3.80
2022-08-16T01:46:39.478Z,3.53
2022-08-16T01:49:43.059Z,3.63
2022-08-16T01:52:28.105Z,4.03
2022-08-16T01:55:18.652Z,3.90
2022-08-16T01:57:53.470Z,3.20
2022-08-16T02:00:29.929Z,3.43
2022-08-16T02:02:58.891Z,3.40
2022-08-16T02:05:25.824Z,3.17
2022-08-16T02:08:00.464Z,3.30
2022-08-16T02:10:28.530Z,3.30
2022-08-16T02:13:00.583Z,3.43
2022-08-16T02:15:40.277Z,3.27
2022-08-16T02:18:12.746Z,3.50
2022-08-16T02:20:42.606Z,3.37
2022-08-16T02:23:13.131Z,3.33
2022-08-16T02:25:52.444Z,2.97
2022-08-16T02:28:24.363Z,3.47
2022-08-16T02:30:53.880Z,3.23
2022-08-16T02:33:24.644Z,3.07
2022-08-16T02:36:14.383Z,3.40
2022-08-16T02:39:01.481Z,3.17
2022-08-16T02:41:29.353Z,3.23
2022-08-16T02:43:56.747Z,2.97
2022-08-16T02:46:33.308Z,3.30
2022-08-16T02:49:03.299Z,3.20
2022-08-16T02:51:35.830Z,3.53
2022-08-16T02:54:03.766Z,2.90
2022-08-16T02:56:34.812Z,3.10
2022-08-16T02:59:02.153Z,3.40
2022-08-16T03:01:33.795Z,3.07
2022-08-16T03:04:49.852Z,3.17
2022-08-16T03:06:59.227Z,3.27
2022-08-16T03:09:52.715Z,3.50
2022-08-16T03:12:30.251Z,3.17
2022-08-16T03:15:08.039Z,3.33
2022-08-16T03:17:37.716Z,3.20
2022-08-16T03:20:31.860Z,3.10
2022-08-16T03:22:59.484Z,3.37
2022-08-16T03:25:26.468Z,3.23
2022-08-16T03:28:10.512Z,3.30
2022-08-16T03:30:39.842Z,3.20
2022-08-16T03:33:10.887Z,3.23
2022-08-16T03:35:48.630Z,3.23
2022-08-16T03:38:34.507Z,3.27
2022-08-16T03:41:14.408Z,3.40
2022-08-16T03:43:55.929Z,2.83
2022-08-16T03:46:48.488Z,3.10
2022-08-16T03:49:20.550Z,3.10
2022-08-16T03:51:55.333Z,3.10
2022-08-16T03:54:28.979Z,3.23
2022-08-16T03:56:58.794Z,3.33
2022-08-16T03:59:31.358Z,3.20
2022-08-16T04:02:04.202Z,3.37
2022-08-16T04:04:40.351Z,3.10
2022-08-16T04:07:08.375Z,3.40
2022-08-16T04:09:39.534Z,3.13
2022-08-16T04:12:54.432Z,3.47
2022-08-16T04:14:59.357Z,3.57
2022-08-16T04:17:27.216Z,3.80
2022-08-16T04:19:58.258Z,3.60
2022-08-16T04:22:28.012Z,3.47
2022-08-16T04:25:00.207Z,3.53
2022-08-16T04:27:33.668Z,3.27
2022-08-16T04:30:04.978Z,3.30
2022-08-16T04:32:42.378Z,3.60
2022-08-16T04:35:16.521Z,3.40
2022-08-16T04:37:48.449Z,3.80
2022-08-16T04:40:25.593Z,3.27
2022-08-16T04:42:54.680Z,3.50
2022-08-16T04:45:35.291Z,3.87
2022-08-16T04:48:06.834Z,3.70
2022-08-16T04:50:43.735Z,3.63
2022-08-16T04:53:20.609Z,3.83
2022-08-16T04:55:53.428Z,3.93
2022-08-16T04:58:41.368Z,3.73
2022-08-16T05:01:11.546Z,4.13
2022-08-16T05:03:41.960Z,4.10
2022-08-16T05:06:45.602Z,3.47
2022-08-16T05:09:28.519Z,4.13
2022-08-16T05:11:57.896Z,3.60
2022-08-16T05:14:45.460Z,3.97
2022-08-16T05:17:24.941Z,4.10
2022-08-16T05:19:58.639Z,3.87
2022-08-16T05:25:41.233Z,4.20
2022-08-16T05:28:18.755Z,3.50
2022-08-16T05:30:52.486Z,3.37
2022-08-16T05:33:27.209Z,4.03
2022-08-16T05:35:58.802Z,4.00
2022-08-16T05:38:39.325Z,3.60
2022-08-16T05:41:13.965Z,4.10
2022-08-16T05:43:46.718Z,4.00
2022-08-16T05:46:28.663Z,3.40
2022-08-16T05:49:08.622Z,3.30
2022-08-16T05:51:46.053Z,3.00
2022-08-16T05:54:25.179Z,3.27
2022-08-16T05:56:56.202Z,3.20
2022-08-16T05:59:26.881Z,3.60
2022-08-16T06:01:55.805Z,3.50
2022-08-16T06:04:36.519Z,3.10
2022-08-16T06:07:24.965Z,3.30
2022-08-16T06:10:05.532Z,3.00
2022-08-16T06:12:35.714Z,3.20
2022-08-16T06:15:10.240Z,2.92
2022-08-16T06:17:44.312Z,2.90
2022-08-16T06:20:35.441Z,2.80
2022-08-16T06:23:18.911Z,3.30
2022-08-16T06:26:09.721Z,2.80
2022-08-16T06:28:41.914Z,2.85
2022-08-16T06:31:17.344Z,2.80
2022-08-16T06:33:52.928Z,3.25
2022-08-16T06:36:21.969Z,3.03
2022-08-16T06:38:57.259Z,2.80
2022-08-16T06:41:39.592Z,2.88
2022-08-16T06:44:21.035Z,3.33
2022-08-16T06:46:54.458Z,3.13
2022-08-16T06:49:22.346Z,2.88
2022-08-16T06:51:50.606Z,3.00
2022-08-16T06:54:27.694Z,2.65
2022-08-16T06:56:55.686Z,2.60
2022-08-16T06:59:25.548Z,2.72
2022-08-16T07:01:58.212Z,3.05
2022-08-16T07:04:33.156Z,2.95
2022-08-16T07:07:24.281Z,3.03
2022-08-16T07:09:59.874Z,3.10
2022-08-16T07:12:47.106Z,3.08
2022-08-16T07:15:17.106Z,3.60
2022-08-16T07:17:49.697Z,2.83
2022-08-16T07:20:35.736Z,3.30
2022-08-16T07:23:13.366Z,2.75
2022-08-16T07:25:49.001Z,2.90
2022-08-16T07:28:20.461Z,2.80
2022-08-16T07:30:48.858Z,3.22
2022-08-16T07:33:51.899Z,2.28
2022-08-16T07:36:21.858Z,2.33
2022-08-16T07:38:50.586Z,2.63
2022-08-16T07:41:18.629Z,2.50
2022-08-16T07:43:50.224Z,2.70
2022-08-16T07:46:38.778Z,2.70
2022-08-16T07:49:12.976Z,2.30
2022-08-16T07:51:42.279Z,2.90
2022-08-16T07:54:12.696Z,2.80
2022-08-16T07:56:49.466Z,2.45
2022-08-16T07:59:16.610Z,2.60
2022-08-16T08:01:44.683Z,2.92
2022-08-16T08:04:13.358Z,2.33
2022-08-16T08:06:45.445Z,2.45
2022-08-16T08:09:18.606Z,2.70
2022-08-16T08:11:59.735Z,2.50
2022-08-16T08:14:38.401Z,2.88
2022-08-16T08:17:08.616Z,2.83
2022-08-16T08:19:37.460Z,2.90
2022-08-16T08:22:09.912Z,3.28
2022-08-16T08:24:53.571Z,3.13
2022-08-16T08:27:27.324Z,2.60
2022-08-16T08:30:09.242Z,2.92
2022-08-16T08:32:59.792Z,2.75
2022-08-16T08:35:34.496Z,2.95
2022-08-16T08:38:03.282Z,3.33
2022-08-16T08:40:33.445Z,3.30
2022-08-16T08:43:12.456Z,2.92
2022-08-16T08:45:52.720Z,3.60
2022-08-16T08:48:33.836Z,3.33
2022-08-16T08:51:17.281Z,3.60
2022-08-16T08:53:57.615Z,3.42
2022-08-16T08:56:35.064Z,3.30
2022-08-16T08:59:22.316Z,3.45
2022-08-16T09:01:56.619Z,3.20
2022-08-16T09:04:40.903Z,3.05
2022-08-16T09:07:08.796Z,4.07
2022-08-16T09:09:41.294Z,3.50
2022-08-16T09:12:31.252Z,3.47
2022-08-16T09:15:08.352Z,4.00
2022-08-16T09:17:51.558Z,4.03
2022-08-16T09:20:23.798Z,4.03
2022-08-16T09:23:00.189Z,4.40
2022-08-16T09:25:39.954Z,4.45
2022-08-16T09:28:13.913Z,3.95
2022-08-16T09:31:21.291Z,4.25
2022-08-16T09:33:52.304Z,4.38
2022-08-16T09:36:32.680Z,4.05
2022-08-16T09:39:01.891Z,3.88
2022-08-16T09:41:30.005Z,4.05
2022-08-16T09:45:09.746Z,4.30
2022-08-16T09:46:49.948Z,4.50
2022-08-16T09:49:19.887Z,3.95
2022-08-16T09:51:53.314Z,3.97
2022-08-16T09:54:23.026Z,3.65
2022-08-16T09:56:52.638Z,3.67
2022-08-16T09:59:20.996Z,4.00
2022-08-16T10:01:52.536Z,4.32
2022-08-16T10:04:31.699Z,3.88
2022-08-16T10:07:11.891Z,3.85
2022-08-16T10:09:54.388Z,4.00
2022-08-16T10:12:46.128Z,4.43
2022-08-16T10:15:17.708Z,3.85
2022-08-16T10:18:00.780Z,3.80
2022-08-16T10:20:36.680Z,4.40
2022-08-16T10:23:07.993Z,3.65
2022-08-16T10:27:20.023Z,4.00
2022-08-16T10:28:32.036Z,3.60
2022-08-16T10:31:03.533Z,4.05
2022-08-16T10:33:33.525Z,3.83
2022-08-16T10:36:05.039Z,3.90
2022-08-16T10:38:36.807Z,3.78
2022-08-16T10:41:06.916Z,3.75
2022-08-16T10:43:36.432Z,4.10
2022-08-16T10:46:39.482Z,3.63
2022-08-16T10:48:52.969Z,3.58
2022-08-16T10:51:19.927Z,4.05
2022-08-16T10:54:04.940Z,3.63
2022-08-16T10:56:51.567Z,3.28
2022-08-16T10:59:44.050Z,3.90
2022-08-16T11:02:58.162Z,4.25
2022-08-16T11:05:12.438Z,3.80
2022-08-16T11:08:06.936Z,4.22
2022-08-16T11:19:05.307Z,3.85
2022-08-16T11:21:37.496Z,3.95
2022-08-16T11:24:40.238Z,4.20
2022-08-16T11:27:23.245Z,3.78
2022-08-16T11:29:56.122Z,4.18
2022-08-16T11:32:31.508Z,4.25
2022-08-16T11:35:10.840Z,4.63
2022-08-16T11:40:44.329Z,4.85
2022-08-16T11:43:12.976Z,4.38
2022-08-16T11:45:54.101Z,3.97
2022-08-16T11:48:23.870Z,3.40
2022-08-16T11:50:51.116Z,4.55
2022-08-16T11:53:22.031Z,4.28
2022-08-16T11:55:54.866Z,5.00
2022-08-16T11:58:28.220Z,4.97
2022-08-16T12:00:58.506Z,5.10
2022-08-16T12:03:34.945Z,5.40
2022-08-16T12:06:10.944Z,5.85
2022-08-16T12:09:01.032Z,5.20
2022-08-16T12:11:31.468Z,4.47
2022-08-16T12:14:05.915Z,3.92
2022-08-16T12:16:35.744Z,4.43
2022-08-16T12:19:10.678Z,4.85
2022-08-16T12:21:58.363Z,4.78
2022-08-16T12:24:27.537Z,4.35
2022-08-16T12:26:55.168Z,4.15
2022-08-16T12:29:22.560Z,4.65
2022-08-16T12:32:00.520Z,4.53
2022-08-16T12:34:29.577Z,4.00
2022-08-16T12:37:02.509Z,3.95
2022-08-16T12:39:29.687Z,5.45
2022-08-16T12:41:57.763Z,4.40
2022-08-16T12:44:31.189Z,4.18
2022-08-16T12:47:17.752Z,4.40
2022-08-16T12:49:45.833Z,3.70
2022-08-16T12:52:32.772Z,4.40
2022-08-16T12:55:01.937Z,4.03
2022-08-16T12:57:36.651Z,4.28
2022-08-16T13:00:23.271Z,4.65
2022-08-16T13:02:54.566Z,4.30
2022-08-16T13:05:24.099Z,4.10
2022-08-16T13:07:53.320Z,3.63
2022-08-16T13:10:37.895Z,3.88
2022-08-16T13:13:09.100Z,4.60
2022-08-16T13:15:55.533Z,4.25
2022-08-16T13:18:34.729Z,4.53
2022-08-16T13:21:06.380Z,4.25
2022-08-16T13:23:36.792Z,3.80
2022-08-16T13:26:12.821Z,3.63
2022-08-16T13:28:47.713Z,3.85
2022-08-16T13:31:16.089Z,3.55
2022-08-16T13:33:44.188Z,3.80
2022-08-16T13:39:01.489Z,3.50
2022-08-16T13:41:30.459Z,3.30
2022-08-16T13:44:00.862Z,3.58
2022-08-16T13:46:35.963Z,3.50
2022-08-16T13:49:04.315Z,3.28
2022-08-16T13:51:31.489Z,4.07
2022-08-16T13:54:04.070Z,3.70
2022-08-16T13:56:38.933Z,4.15
2022-08-16T13:59:19.843Z,3.97
2022-08-16T14:01:59.819Z,3.50
2022-08-16T14:04:31.888Z,3.65
2022-08-16T14:07:00.654Z,3.88
2022-08-16T14:09:29.049Z,3.72
2022-08-16T14:12:00.889Z,4.05
2022-08-16T14:14:30.221Z,5.25
2022-08-16T14:16:59.997Z,3.95
2022-08-16T14:19:29.607Z,3.70
2022-08-16T14:22:13.571Z,4.07
2022-08-16T14:24:46.796Z,3.83
2022-08-16T14:27:21.137Z,2.97
2022-08-16T14:29:50.006Z,3.28
2022-08-16T14:32:33.154Z,3.58
2022-08-16T14:35:05.547Z,3.28
2022-08-16T14:37:35.652Z,3.83
2022-08-16T14:40:04.344Z,3.80
2022-08-16T14:42:32.370Z,3.15
2022-08-16T14:45:00.479Z,3.30
2022-08-16T14:47:34.085Z,3.85
2022-08-16T14:50:02.853Z,3.38
2022-08-16T14:55:21.759Z,3.30
2022-08-16T14:57:49.835Z,3.70
2022-08-16T15:00:22.342Z,3.55
2022-08-16T15:03:02.259Z,3.30
2022-08-16T15:07:56.912Z,3.22
2022-08-16T15:10:26.606Z,3.83
2022-08-16T15:12:59.770Z,4.13
2022-08-16T15:15:29.127Z,4.13
2022-08-16T15:17:57.369Z,3.40
2022-08-16T15:20:30.648Z,3.40
2022-08-16T15:22:59.683Z,3.40
2022-08-16T15:25:30.115Z,3.40
2022-08-16T15:27:59.319Z,3.10
2022-08-16T15:30:48.192Z,3.35
2022-08-16T15:33:19.986Z,3.97
2022-08-16T15:36:03.522Z,3.72
2022-08-16T15:39:02.610Z,3.92
2022-08-16T15:41:48.021Z,4.10
2022-08-16T15:44:22.308Z,3.95
2022-08-16T15:46:59.919Z,3.80
2022-08-16T15:49:37.720Z,3.63
2022-08-16T15:52:18.399Z,3.97
2022-08-16T15:54:51.468Z,4.93
2022-08-16T15:57:25.415Z,4.60
2022-08-16T15:59:56.118Z,6.38
2022-08-16T16:02:31.009Z,3.67
2022-08-16T16:05:06.816Z,4.30
2022-08-16T16:07:36.856Z,5.70
2022-08-16T16:10:13.423Z,4.82
2022-08-16T16:12:54.152Z,3.65
2022-08-16T16:15:29.458Z,3.22
2022-08-16T16:17:57.373Z,3.90
2022-08-16T16:20:27.498Z,3.90
2022-08-16T16:23:10.421Z,3.63
2022-08-16T16:25:43.740Z,4.53
2022-08-16T16:29:05.422Z,3.85
2022-08-16T16:31:04.770Z,4.53
2022-08-16T16:33:34.056Z,3.35
2022-08-16T16:36:03.988Z,3.70
2022-08-16T16:38:34.616Z,4.00
2022-08-16T16:41:08.991Z,4.55
2022-08-16T16:43:38.556Z,4.03
2022-08-16T16:46:41.369Z,4.75
2022-08-16T16:48:58.061Z,3.95
2022-08-16T16:51:27.908Z,4.78
2022-08-16T16:53:56.859Z,4.10
2022-08-16T16:56:34.383Z,5.15
2022-08-16T16:59:10.497Z,3.80
2022-08-16T17:01:59.584Z,3.97
2022-08-16T17:04:40.520Z,3.88
2022-08-16T17:07:07.809Z,3.53
2022-08-16T17:13:06.897Z,4.18
2022-08-16T17:15:36.527Z,3.85
2022-08-16T17:18:04.263Z,4.20
2022-08-16T17:20:52.907Z,4.83
2022-08-16T17:23:20.318Z,4.80
2022-08-16T17:26:10.546Z,4.20
2022-08-16T17:28:59.497Z,4.30
2022-08-16T17:31:38.435Z,4.50
2022-08-16T17:34:28.870Z,5.00
2022-08-16T17:37:00.522Z,4.73
2022-08-16T17:39:29.921Z,5.27
2022-08-16T17:42:12.515Z,4.23
2022-08-16T17:44:40.101Z,4.80
2022-08-16T17:47:07.250Z,4.00
2022-08-16T17:49:37.866Z,4.90
2022-08-16T17:52:05.932Z,3.73
2022-08-16T17:54:33.138Z,4.23
2022-08-16T17:57:01.118Z,4.60
2022-08-16T17:59:29.804Z,4.33
2022-08-16T18:01:57.737Z,4.37
2022-08-16T18:04:49.628Z,4.07
2022-08-16T18:07:12.996Z,5.17
2022-08-16T18:09:40.906Z,5.20
2022-08-16T18:12:44.516Z,4.30
2022-08-16T18:15:11.827Z,5.10
2022-08-16T18:17:40.487Z,5.17
2022-08-16T18:20:28.942Z,4.60
2022-08-16T18:23:09.285Z,4.73
2022-08-16T18:25:41.855Z,4.37
2022-08-16T18:28:09.164Z,4.67
2022-08-16T18:30:36.304Z,4.47
2022-08-16T18:33:03.802Z,4.40
2022-08-16T18:35:30.847Z,5.63
2022-08-16T18:37:58.185Z,6.83
2022-08-16T18:40:26.732Z,5.10
2022-08-16T18:43:02.823Z,5.20
2022-08-16T18:45:35.397Z,4.77
2022-08-16T18:48:05.389Z,5.47
2022-08-16T18:50:59.071Z,5.27
2022-08-16T18:53:21.899Z,4.80
2022-08-16T18:55:49.681Z,4.57
2022-08-16T18:58:17.770Z,5.73
2022-08-16T19:00:56.056Z,4.93
2022-08-16T19:03:29.941Z,5.50
2022-08-16T19:06:02.939Z,5.10
2022-08-16T19:08:31.618Z,5.80
2022-08-16T19:10:58.482Z,5.20
2022-08-16T19:13:27.856Z,5.20
2022-08-16T19:15:57.280Z,4.50
2022-08-16T19:18:26.158Z,4.93
2022-08-16T19:20:55.462Z,4.90
2022-08-16T19:23:26.316Z,5.70
2022-08-16T19:26:02.515Z,5.30
2022-08-16T19:28:49.333Z,4.20
2022-08-16T19:31:32.753Z,5.27
2022-08-16T19:34:00.827Z,5.00
2022-08-16T19:36:36.771Z,5.80
2022-08-16T19:39:14.545Z,4.80
2022-08-16T19:41:44.396Z,5.00
2022-08-16T19:44:11.840Z,5.57
2022-08-16T19:46:41.657Z,5.17
2022-08-16T19:49:08.535Z,4.83
2022-08-16T19:51:35.417Z,5.50
2022-08-16T19:54:05.016Z,4.87
2022-08-16T19:56:32.127Z,5.07
2022-08-16T20:01:46.942Z,5.13
2022-08-16T20:04:13.921Z,5.33
2022-08-16T20:06:41.981Z,5.27
2022-08-16T20:09:10.938Z,5.33
2022-08-16T20:11:44.296Z,5.27
2022-08-16T20:14:30.980Z,5.00
2022-08-16T20:16:59.768Z,5.73
2022-08-16T20:19:29.537Z,5.77
2022-08-16T20:22:06.001Z,5.73
2022-08-16T20:24:35.118Z,4.77
2022-08-16T20:27:04.661Z,5.23
2022-08-16T20:29:32.651Z,5.70
2022-08-16T20:31:59.639Z,5.30
2022-08-16T20:34:26.686Z,5.57
2022-08-16T20:36:53.846Z,5.47
2022-08-16T20:39:20.931Z,5.10
2022-08-16T20:41:47.860Z,5.43
2022-08-16T20:44:14.840Z,5.00
2022-08-16T20:46:41.992Z,5.10
2022-08-16T20:49:10.230Z,4.67
2022-08-16T20:51:46.670Z,4.87
2022-08-16T20:54:14.729Z,4.50
2022-08-16T20:56:41.820Z,4.80
2022-08-16T20:59:08.851Z,4.60
2022-08-16T21:01:46.426Z,4.97
2022-08-16T21:04:22.506Z,4.77
2022-08-16T21:06:54.113Z,4.60
2022-08-16T21:09:33.882Z,5.10
2022-08-16T21:12:05.555Z,5.10
2022-08-16T21:14:34.410Z,4.37
2022-08-16T21:17:06.568Z,4.60
2022-08-16T21:19:37.330Z,4.63
2022-08-16T21:22:11.185Z,4.60
2022-08-16T21:24:38.285Z,5.10
2022-08-16T21:27:05.272Z,4.90
2022-08-16T21:29:39.665Z,4.53
2022-08-16T21:32:17.706Z,4.70
2022-08-16T21:34:45.110Z,5.10
2022-08-16T21:37:12.464Z,5.00
2022-08-16T21:39:44.693Z,5.30
2022-08-16T21:42:14.373Z,4.73
2022-08-16T21:44:42.151Z,5.23
2022-08-16T21:47:12.107Z,4.87
2022-08-16T21:49:39.174Z,5.40
2022-08-16T21:52:08.105Z,4.83
2022-08-16T21:54:36.943Z,5.27
2022-08-16T21:57:07.559Z,5.10
2022-08-16T21:59:37.178Z,4.90
2022-08-16T22:02:04.242Z,5.00
2022-08-16T22:04:36.806Z,4.83
2022-08-16T22:07:09.765Z,5.00
2022-08-16T22:09:36.622Z,4.63
2022-08-16T22:12:04.601Z,4.90
2022-08-16T22:14:34.019Z,4.90
2022-08-16T22:17:01.371Z,5.03
2022-08-16T22:19:28.505Z,4.67
2022-08-16T22:21:58.323Z,4.70
2022-08-16T22:24:25.175Z,5.77
2022-08-16T22:26:52.086Z,5.67
2022-08-16T22:29:19.256Z,5.97
2022-08-16T22:31:46.145Z,6.37
2022-08-16T22:34:13.760Z,6.23
2022-08-16T22:36:42.019Z,5.90
2022-08-16T22:39:11.188Z,6.03
2022-08-16T22:41:40.082Z,5.97
2022-08-16T22:44:07.288Z,5.17
2022-08-16T22:46:36.587Z,5.60
2022-08-16T22:49:05.279Z,5.63
2022-08-16T22:51:33.013Z,5.40
2022-08-16T22:54:39.250Z,5.67
2022-08-16T22:56:50.252Z,6.00
2022-08-16T22:59:20.198Z,6.40
2022-08-16T23:01:47.174Z,5.90
2022-08-16T23:04:14.071Z,5.90
2022-08-16T23:06:41.132Z,6.00
2022-08-16T23:09:09.450Z,6.43
2022-08-16T23:11:39.349Z,6.30
2022-08-16T23:14:06.239Z,5.90
2022-08-16T23:16:36.189Z,6.47
2022-08-16T23:19:05.749Z,6.17
2022-08-16T23:21:37.592Z,5.70
2022-08-16T23:24:06.248Z,6.37
2022-08-16T23:26:44.976Z,5.97
2022-08-16T23:29:25.465Z,6.37
2022-08-16T23:31:58.371Z,6.10
2022-08-16T23:34:27.950Z,6.10
2022-08-16T23:36:58.095Z,5.90
2022-08-16T23:39:25.313Z,6.23
2022-08-16T23:41:52.387Z,6.17
2022-08-16T23:44:44.111Z,6.03
2022-08-16T23:47:06.434Z,6.90
2022-08-16T23:49:57.071Z,6.10
2022-08-16T23:52:45.285Z,6.47
2022-08-16T23:55:09.381Z,6.57
2022-08-16T23:57:37.518Z,5.87
